createdAt,value
2023-05-19T00:00:54.963Z,65.21
2023-05-19T00:01:55.208Z,65.20
2023-05-19T00:02:55.065Z,65.08
2023-05-19T00:03:55.033Z,64.95
2023-05-19T00:04:55.057Z,64.91
2023-05-19T00:05:55.047Z,64.88
2023-05-19T00:06:55.225Z,64.82
2023-05-19T00:07:55.084Z,64.78
2023-05-19T00:08:55.012Z,64.82
2023-05-19T00:09:55.150Z,65.02
2023-05-19T00:10:56.140Z,65.23
2023-05-19T00:11:55.161Z,65.36
2023-05-19T00:12:55.391Z,65.36
2023-05-19T00:13:56.331Z,65.36
2023-05-19T00:14:55.218Z,65.33
2023-05-19T00:15:55.610Z,65.42
2023-05-19T00:16:56.338Z,65.73
2023-05-19T00:17:56.468Z,65.72
2023-05-19T00:18:56.609Z,65.73
2023-05-19T00:19:55.355Z,66.07
2023-05-19T00:20:55.473Z,66.01
2023-05-19T00:21:55.645Z,65.90
2023-05-19T00:22:55.602Z,66.08
2023-05-19T00:23:55.427Z,66.49
2023-05-19T00:24:55.408Z,66.73
2023-05-19T00:25:55.616Z,66.99
2023-05-19T00:26:55.494Z,67.00
2023-05-19T00:27:56.559Z,67.10
2023-05-19T00:28:56.616Z,67.06
2023-05-19T00:29:55.650Z,67.00
2023-05-19T00:30:56.873Z,67.16
2023-05-19T00:31:56.000Z,66.98
2023-05-19T00:32:56.078Z,67.52
2023-05-19T00:33:57.083Z,67.70
2023-05-19T00:34:56.857Z,68.04
2023-05-19T00:35:55.874Z,68.26
2023-05-19T00:36:56.997Z,68.45
2023-05-19T00:37:56.981Z,68.59
2023-05-19T00:38:55.925Z,68.44
2023-05-19T00:39:56.948Z,68.59
2023-05-19T00:40:56.226Z,68.18
2023-05-19T00:41:56.027Z,68.22
2023-05-19T00:42:56.173Z,68.20
2023-05-19T00:43:57.173Z,68.33
2023-05-19T00:44:56.157Z,68.27
2023-05-19T00:45:56.292Z,68.25
2023-05-19T00:46:57.218Z,68.31
2023-05-19T00:47:57.374Z,68.88
2023-05-19T00:48:56.433Z,69.12
2023-05-19T00:49:57.452Z,69.38
2023-05-19T00:50:56.305Z,69.95
2023-05-19T00:51:56.472Z,70.77
2023-05-19T00:52:56.480Z,70.74
2023-05-19T00:53:57.369Z,70.02
2023-05-19T00:54:57.398Z,69.53
2023-05-19T00:55:56.461Z,69.05
2023-05-19T00:56:57.531Z,68.69
2023-05-19T00:57:57.596Z,68.91
2023-05-19T00:58:57.453Z,68.86
2023-05-19T00:59:57.659Z,68.45
2023-05-19T01:00:57.756Z,68.38
2023-05-19T01:01:57.618Z,68.41
2023-05-19T01:02:57.803Z,68.30
2023-05-19T01:03:57.039Z,68.49
2023-05-19T01:04:56.536Z,68.07
2023-05-19T01:05:57.565Z,67.74
2023-05-19T01:06:57.816Z,67.51
2023-05-19T01:07:57.766Z,67.56
2023-05-19T01:08:57.628Z,67.49
2023-05-19T01:09:56.770Z,67.13
2023-05-19T01:10:56.665Z,66.89
2023-05-19T01:11:57.690Z,66.70
2023-05-19T01:12:57.059Z,66.45
2023-05-19T01:13:57.811Z,66.30
2023-05-19T01:14:57.089Z,66.26
2023-05-19T01:15:58.154Z,66.13
2023-05-19T01:16:56.956Z,65.89
2023-05-19T01:17:57.935Z,65.73
2023-05-19T01:18:58.049Z,65.64
2023-05-19T01:19:58.065Z,65.43
2023-05-19T01:20:57.205Z,65.39
2023-05-19T01:21:57.248Z,65.38
2023-05-19T01:22:57.238Z,65.44
2023-05-19T01:23:57.151Z,65.34
2023-05-19T01:24:57.302Z,65.89
2023-05-19T01:25:57.356Z,66.10
2023-05-19T01:26:57.428Z,66.07
2023-05-19T01:27:57.324Z,66.59
2023-05-19T01:28:58.384Z,66.97
2023-05-19T01:29:57.679Z,67.39
2023-05-19T01:30:57.742Z,67.17
2023-05-19T01:31:57.595Z,66.72
2023-05-19T01:32:57.601Z,66.74
2023-05-19T01:33:57.801Z,66.68
2023-05-19T01:34:58.643Z,66.67
2023-05-19T01:35:58.739Z,66.64
2023-05-19T01:36:57.625Z,66.80
2023-05-19T01:37:57.649Z,66.48
2023-05-19T01:38:57.850Z,66.57
2023-05-19T01:39:57.763Z,66.69
2023-05-19T01:40:58.717Z,66.39
2023-05-19T01:41:57.786Z,66.16
2023-05-19T01:42:57.996Z,65.84
2023-05-19T01:43:58.048Z,65.94
2023-05-19T01:44:57.808Z,65.91
2023-05-19T01:45:57.972Z,65.93
2023-05-19T01:46:58.864Z,65.96
2023-05-19T01:47:59.020Z,65.97
2023-05-19T01:48:57.903Z,66.14
2023-05-19T01:49:58.082Z,66.42
2023-05-19T01:50:59.151Z,67.08
2023-05-19T01:51:58.069Z,67.36
2023-05-19T01:52:59.036Z,67.80
2023-05-19T01:53:59.179Z,68.78
2023-05-19T01:54:59.256Z,69.56
2023-05-19T01:55:58.376Z,70.01
2023-05-19T01:56:59.131Z,70.26
2023-05-19T01:57:58.116Z,70.62
2023-05-19T01:58:58.131Z,70.59
2023-05-19T01:59:58.187Z,70.57
2023-05-19T02:00:59.367Z,70.65
2023-05-19T02:01:58.291Z,70.77
2023-05-19T02:02:58.293Z,70.85
2023-05-19T02:03:58.261Z,71.08
2023-05-19T02:04:58.210Z,71.04
2023-05-19T02:05:59.385Z,70.64
2023-05-19T02:06:59.310Z,70.30
2023-05-19T02:07:59.326Z,69.56
2023-05-19T02:08:58.495Z,69.13
2023-05-19T02:09:58.380Z,68.95
2023-05-19T02:10:58.627Z,69.13
2023-05-19T02:11:58.473Z,69.27
2023-05-19T02:12:58.729Z,69.46
2023-05-19T02:13:58.457Z,69.12
2023-05-19T02:14:58.770Z,68.96
2023-05-19T02:15:58.778Z,68.86
2023-05-19T02:16:59.613Z,68.69
2023-05-19T02:17:58.846Z,68.70
2023-05-19T02:18:59.583Z,68.62
2023-05-19T02:19:58.518Z,68.48
2023-05-19T02:20:59.643Z,68.32
2023-05-19T02:21:58.871Z,68.06
2023-05-19T02:22:58.842Z,68.16
2023-05-19T02:23:59.918Z,67.98
2023-05-19T02:24:58.717Z,68.01
2023-05-19T02:25:58.941Z,68.22
2023-05-19T02:26:59.891Z,68.72
2023-05-19T02:27:58.891Z,68.15
2023-05-19T02:28:59.878Z,67.82
2023-05-19T02:29:59.029Z,67.45
2023-05-19T02:30:59.902Z,67.27
2023-05-19T02:31:59.106Z,66.97
2023-05-19T02:32:59.015Z,66.88
2023-05-19T02:33:59.076Z,67.02
2023-05-19T02:35:00.008Z,66.92
2023-05-19T02:36:00.037Z,66.89
2023-05-19T02:36:59.034Z,67.02
2023-05-19T02:37:59.336Z,66.96
2023-05-19T02:38:59.157Z,66.99
2023-05-19T02:40:00.267Z,66.97
2023-05-19T02:41:00.301Z,66.88
2023-05-19T02:42:00.474Z,66.83
2023-05-19T02:42:59.619Z,66.89
2023-05-19T02:43:59.443Z,66.89
2023-05-19T02:44:59.568Z,66.98
2023-05-19T02:46:00.627Z,66.97
2023-05-19T02:47:00.392Z,66.94
2023-05-19T02:48:00.662Z,67.01
2023-05-19T02:48:59.566Z,66.91
2023-05-19T02:50:00.756Z,66.95
2023-05-19T02:50:59.594Z,66.93
2023-05-19T02:51:59.627Z,66.96
2023-05-19T02:52:59.909Z,67.04
2023-05-19T02:53:59.709Z,67.05
2023-05-19T02:55:00.926Z,67.05
2023-05-19T02:56:00.811Z,67.38
2023-05-19T02:56:59.779Z,67.43
2023-05-19T02:57:59.868Z,67.50
2023-05-19T02:58:59.782Z,67.58
2023-05-19T02:59:59.918Z,67.84
2023-05-19T03:01:00.816Z,68.02
2023-05-19T03:02:00.098Z,68.00
2023-05-19T03:03:00.042Z,67.86
2023-05-19T03:04:00.986Z,67.84
2023-05-19T03:05:00.214Z,67.59
2023-05-19T03:06:01.177Z,67.50
2023-05-19T03:07:01.148Z,67.44
2023-05-19T03:08:00.218Z,67.34
2023-05-19T03:09:01.001Z,67.34
2023-05-19T03:10:01.058Z,67.44
2023-05-19T03:11:01.314Z,67.46
2023-05-19T03:12:01.111Z,67.67
2023-05-19T03:13:01.461Z,67.52
2023-05-19T03:14:00.243Z,67.57
2023-05-19T03:15:00.328Z,67.51
2023-05-19T03:16:01.379Z,67.54
2023-05-19T03:17:00.646Z,67.48
2023-05-19T03:18:01.724Z,67.40
2023-05-19T03:19:00.788Z,67.33
2023-05-19T03:20:00.520Z,67.35
2023-05-19T03:21:01.755Z,67.26
2023-05-19T03:22:01.485Z,67.20
2023-05-19T03:23:00.784Z,67.56
2023-05-19T03:24:01.583Z,67.81
2023-05-19T03:25:01.624Z,67.78
2023-05-19T03:26:00.715Z,67.85
2023-05-19T03:27:00.879Z,67.98
2023-05-19T03:28:00.618Z,67.82
2023-05-19T03:29:00.907Z,67.76
2023-05-19T03:30:00.693Z,67.82
2023-05-19T03:31:01.862Z,67.74
2023-05-19T03:32:01.856Z,67.90
2023-05-19T03:33:02.065Z,67.88
2023-05-19T03:34:01.977Z,67.82
2023-05-19T03:35:00.906Z,67.82
2023-05-19T03:36:01.211Z,67.83
2023-05-19T03:37:01.072Z,67.92
2023-05-19T03:38:01.219Z,67.91
2023-05-19T03:39:02.024Z,67.83
2023-05-19T03:40:01.317Z,67.89
2023-05-19T03:41:01.373Z,67.86
2023-05-19T03:42:02.179Z,67.87
2023-05-19T03:43:01.330Z,68.13
2023-05-19T03:44:02.348Z,68.17
2023-05-19T03:45:01.405Z,68.22
2023-05-19T03:46:02.514Z,68.25
2023-05-19T03:47:02.564Z,68.34
2023-05-19T03:48:02.448Z,68.50
2023-05-19T03:49:01.652Z,68.53
2023-05-19T03:50:01.389Z,68.44
2023-05-19T03:51:01.587Z,68.78
2023-05-19T03:52:02.603Z,68.85
2023-05-19T03:53:02.503Z,68.94
2023-05-19T03:54:02.503Z,68.89
2023-05-19T03:55:02.503Z,68.84
2023-05-19T03:56:01.521Z,68.86
2023-05-19T03:57:01.535Z,69.04
2023-05-19T03:58:01.578Z,68.86
2023-05-19T03:59:02.609Z,68.78
2023-05-19T04:00:01.615Z,68.65
2023-05-19T04:01:02.558Z,68.43
2023-05-19T04:02:02.643Z,68.44
2023-05-19T04:03:02.808Z,68.45
2023-05-19T04:04:02.734Z,68.44
2023-05-19T04:05:01.761Z,68.74
2023-05-19T04:06:01.768Z,68.63
2023-05-19T04:07:01.791Z,68.71
2023-05-19T04:08:01.815Z,68.76
2023-05-19T04:09:02.827Z,68.63
2023-05-19T04:10:02.901Z,68.57
2023-05-19T04:11:02.011Z,68.45
2023-05-19T04:12:01.930Z,68.65
2023-05-19T04:13:02.997Z,68.62
2023-05-19T04:14:03.047Z,68.70
2023-05-19T04:15:03.076Z,68.73
2023-05-19T04:16:03.135Z,68.78
2023-05-19T04:17:03.229Z,68.75
2023-05-19T04:18:02.317Z,68.81
2023-05-19T04:19:03.326Z,68.79
2023-05-19T04:20:03.239Z,68.84
2023-05-19T04:21:03.286Z,68.90
2023-05-19T04:22:03.342Z,68.95
2023-05-19T04:23:03.324Z,69.09
2023-05-19T04:24:03.317Z,69.17
2023-05-19T04:25:02.324Z,69.19
2023-05-19T04:26:02.349Z,69.26
2023-05-19T04:27:03.371Z,69.27
2023-05-19T04:28:02.593Z,69.21
2023-05-19T04:29:02.456Z,69.29
2023-05-19T04:30:02.444Z,69.20
2023-05-19T04:31:02.476Z,69.05
2023-05-19T04:32:03.487Z,68.93
2023-05-19T04:33:03.562Z,68.79
2023-05-19T04:34:02.559Z,68.81
2023-05-19T04:35:02.520Z,68.86
2023-05-19T04:36:03.578Z,68.86
2023-05-19T04:37:03.597Z,68.86
2023-05-19T04:38:03.638Z,68.75
2023-05-19T04:39:03.636Z,68.75
2023-05-19T04:40:03.716Z,68.74
2023-05-19T04:41:03.738Z,68.71
2023-05-19T04:42:02.743Z,68.75
2023-05-19T04:43:03.797Z,68.78
2023-05-19T04:44:03.800Z,68.82
2023-05-19T04:45:02.823Z,68.67
2023-05-19T04:46:03.874Z,68.60
2023-05-19T04:47:04.016Z,68.51
2023-05-19T04:48:04.008Z,68.39
2023-05-19T04:49:03.895Z,68.31
2023-05-19T04:50:03.986Z,68.27
2023-05-19T04:51:03.982Z,68.47
2023-05-19T04:52:04.045Z,69.10
2023-05-19T04:53:04.047Z,69.14
2023-05-19T04:54:03.038Z,69.22
2023-05-19T04:55:04.052Z,69.18
2023-05-19T04:56:04.079Z,69.01
2023-05-19T04:57:03.182Z,68.91
2023-05-19T04:58:04.166Z,68.78
2023-05-19T04:59:04.232Z,68.71
2023-05-19T05:00:03.245Z,68.71
2023-05-19T05:01:04.261Z,68.67
2023-05-19T05:02:04.345Z,68.59
2023-05-19T05:03:03.401Z,68.66
2023-05-19T05:04:04.438Z,68.66
2023-05-19T05:05:04.635Z,68.51
2023-05-19T05:06:03.392Z,68.43
2023-05-19T05:07:04.406Z,68.39
2023-05-19T05:08:03.502Z,68.36
2023-05-19T05:09:04.533Z,68.49
2023-05-19T05:10:04.494Z,68.55
2023-05-19T05:11:03.589Z,69.01
2023-05-19T05:12:04.543Z,69.22
2023-05-19T05:13:04.594Z,69.35
2023-05-19T05:14:04.590Z,69.30
2023-05-19T05:15:04.718Z,69.13
2023-05-19T05:16:04.708Z,69.04
2023-05-19T05:17:03.698Z,68.95
2023-05-19T05:18:03.802Z,68.93
2023-05-19T05:19:04.829Z,68.77
2023-05-19T05:20:03.839Z,69.12
2023-05-19T05:21:04.868Z,69.24
2023-05-19T05:22:04.932Z,69.16
2023-05-19T05:23:04.981Z,69.21
2023-05-19T05:24:03.955Z,69.04
2023-05-19T05:25:03.966Z,68.97
2023-05-19T05:26:05.169Z,69.09
2023-05-19T05:27:05.152Z,69.04
2023-05-19T05:28:05.170Z,69.10
2023-05-19T05:29:05.108Z,69.10
2023-05-19T05:30:04.082Z,69.42
2023-05-19T05:31:04.247Z,69.64
2023-05-19T05:32:04.432Z,69.89
2023-05-19T05:33:04.285Z,69.91
2023-05-19T05:34:04.207Z,69.99
2023-05-19T05:35:05.237Z,69.77
2023-05-19T05:36:05.281Z,69.66
2023-05-19T05:37:05.417Z,69.45
2023-05-19T05:38:05.405Z,69.47
2023-05-19T05:39:04.457Z,69.21
2023-05-19T05:40:05.422Z,69.15
2023-05-19T05:41:05.463Z,68.92
2023-05-19T05:42:05.503Z,68.71
2023-05-19T05:43:05.650Z,68.66
2023-05-19T05:44:05.659Z,68.45
2023-05-19T05:45:04.664Z,68.32
2023-05-19T05:46:05.696Z,68.24
2023-05-19T05:47:05.774Z,68.36
2023-05-19T05:48:04.772Z,68.75
2023-05-19T05:49:04.741Z,68.87
2023-05-19T05:50:04.786Z,68.93
2023-05-19T05:51:05.927Z,68.88
2023-05-19T05:52:06.802Z,68.81
2023-05-19T05:53:05.955Z,68.60
2023-05-19T05:54:06.020Z,68.41
2023-05-19T05:55:05.035Z,68.27
2023-05-19T05:56:06.022Z,68.03
2023-05-19T05:57:06.123Z,67.75
2023-05-19T05:58:06.127Z,67.52
2023-05-19T05:59:06.207Z,67.44
2023-05-19T06:00:05.242Z,67.39
2023-05-19T06:01:06.158Z,67.34
2023-05-19T06:02:05.229Z,67.34
2023-05-19T06:03:05.388Z,67.27
2023-05-19T06:04:05.234Z,67.07
2023-05-19T06:05:06.225Z,66.97
2023-05-19T06:06:06.251Z,67.41
2023-05-19T06:07:06.314Z,67.93
2023-05-19T06:08:05.465Z,68.08
2023-05-19T06:09:06.397Z,68.23
2023-05-19T06:10:05.598Z,68.27
2023-05-19T06:11:06.433Z,68.15
2023-05-19T06:12:06.594Z,68.06
2023-05-19T06:13:05.537Z,68.05
2023-05-19T06:14:06.606Z,67.93
2023-05-19T06:15:06.692Z,67.80
2023-05-19T06:16:06.750Z,67.52
2023-05-19T06:17:05.714Z,67.38
2023-05-19T06:18:06.861Z,67.23
2023-05-19T06:19:06.817Z,67.15
2023-05-19T06:20:05.790Z,67.06
2023-05-19T06:21:05.848Z,66.86
2023-05-19T06:22:05.992Z,66.79
2023-05-19T06:23:05.911Z,66.71
2023-05-19T06:24:07.141Z,66.54
2023-05-19T06:25:05.982Z,66.35
2023-05-19T06:26:06.060Z,66.27
2023-05-19T06:27:06.055Z,66.29
2023-05-19T06:28:07.161Z,66.25
2023-05-19T06:29:07.418Z,66.26
2023-05-19T06:30:07.310Z,66.13
2023-05-19T06:31:07.320Z,66.24
2023-05-19T06:32:06.298Z,65.96
2023-05-19T06:33:07.425Z,65.90
2023-05-19T06:34:06.374Z,65.78
2023-05-19T06:35:06.430Z,65.72
2023-05-19T06:36:06.392Z,65.62
2023-05-19T06:37:07.422Z,65.69
2023-05-19T06:38:07.468Z,65.96
2023-05-19T06:39:06.504Z,66.31
2023-05-19T06:40:07.468Z,66.44
2023-05-19T06:41:07.810Z,66.46
2023-05-19T06:42:06.568Z,66.41
2023-05-19T06:43:07.618Z,66.22
2023-05-19T06:44:06.998Z,66.16
2023-05-19T06:45:06.750Z,66.05
2023-05-19T06:46:06.848Z,65.89
2023-05-19T06:47:06.848Z,65.86
2023-05-19T06:48:06.910Z,65.90
2023-05-19T06:49:06.872Z,66.05
2023-05-19T06:50:08.005Z,65.94
2023-05-19T06:51:07.041Z,66.17
2023-05-19T06:52:08.063Z,66.54
2023-05-19T06:53:06.967Z,66.75
2023-05-19T06:54:08.030Z,66.79
2023-05-19T06:55:08.084Z,66.81
2023-05-19T06:56:07.152Z,66.97
2023-05-19T06:57:07.215Z,66.81
2023-05-19T06:58:07.892Z,66.54
2023-05-19T06:59:07.316Z,66.31
2023-05-19T07:00:07.350Z,66.38
2023-05-19T07:01:08.439Z,66.62
2023-05-19T07:02:08.562Z,66.74
2023-05-19T07:03:08.575Z,66.70
2023-05-19T07:04:08.599Z,66.40
2023-05-19T07:05:08.563Z,66.44
2023-05-19T07:06:08.668Z,66.72
2023-05-19T07:07:08.596Z,67.29
2023-05-19T07:08:08.700Z,67.43
2023-05-19T07:09:08.736Z,67.45
2023-05-19T07:10:07.693Z,67.61
2023-05-19T07:11:07.730Z,68.02
2023-05-19T07:12:08.765Z,67.97
2023-05-19T07:13:07.927Z,68.03
2023-05-19T07:14:08.885Z,67.75
2023-05-19T07:15:07.909Z,67.24
2023-05-19T07:16:07.945Z,66.91
2023-05-19T07:17:09.081Z,66.64
2023-05-19T07:18:08.049Z,66.33
2023-05-19T07:19:09.178Z,66.06
2023-05-19T07:20:08.143Z,65.77
2023-05-19T07:21:09.289Z,65.57
2023-05-19T07:22:09.251Z,65.25
2023-05-19T07:23:09.411Z,65.53
2023-05-19T07:24:09.276Z,65.51
2023-05-19T07:25:09.231Z,65.36
2023-05-19T07:26:09.302Z,65.60
2023-05-19T07:27:09.272Z,65.79
2023-05-19T07:28:08.272Z,65.93
2023-05-19T07:29:09.395Z,66.08
2023-05-19T07:30:08.461Z,66.24
2023-05-19T07:31:08.356Z,66.17
2023-05-19T07:32:08.566Z,66.14
2023-05-19T07:33:09.420Z,66.02
2023-05-19T07:34:08.669Z,65.82
2023-05-19T07:35:08.530Z,65.73
2023-05-19T07:36:09.577Z,65.86
2023-05-19T07:37:09.787Z,65.79
2023-05-19T07:38:09.672Z,65.81
2023-05-19T07:39:10.004Z,65.57
2023-05-19T07:40:09.822Z,65.25
2023-05-19T07:41:08.894Z,65.02
2023-05-19T07:42:09.187Z,64.94
2023-05-19T07:43:08.935Z,64.81
2023-05-19T07:44:09.045Z,64.61
2023-05-19T07:45:10.107Z,64.34
2023-05-19T07:46:10.231Z,63.92
2023-05-19T07:47:09.041Z,63.80
2023-05-19T07:48:10.154Z,63.65
2023-05-19T07:49:09.106Z,62.86
2023-05-19T07:50:10.113Z,62.50
2023-05-19T07:51:09.165Z,62.35
2023-05-19T07:52:10.182Z,61.96
2023-05-19T07:53:09.196Z,61.85
2023-05-19T07:54:09.289Z,61.85
2023-05-19T07:55:10.227Z,61.62
2023-05-19T07:56:10.271Z,61.53
2023-05-19T07:57:10.321Z,61.40
2023-05-19T07:58:09.362Z,61.50
2023-05-19T07:59:10.466Z,61.49
2023-05-19T08:00:09.440Z,61.43
2023-05-19T08:01:09.448Z,61.46
2023-05-19T08:02:10.728Z,61.93
2023-05-19T08:03:09.714Z,62.22
2023-05-19T08:04:11.903Z,62.63
2023-05-19T08:05:10.573Z,62.82
2023-05-19T08:06:09.677Z,62.80
2023-05-19T08:07:10.513Z,62.71
2023-05-19T08:08:10.745Z,62.26
2023-05-19T08:09:09.504Z,62.31
2023-05-19T08:10:10.507Z,61.82
2023-05-19T08:11:10.516Z,61.64
2023-05-19T08:12:10.519Z,61.67
2023-05-19T08:13:09.483Z,61.21
2023-05-19T08:14:10.466Z,60.67
2023-05-19T08:15:09.585Z,60.17
2023-05-19T08:16:10.498Z,59.83
2023-05-19T08:17:10.621Z,60.17
2023-05-19T08:18:09.561Z,60.00
2023-05-19T08:19:10.646Z,59.76
2023-05-19T08:20:09.636Z,59.75
2023-05-19T08:21:09.642Z,59.78
2023-05-19T08:22:09.415Z,59.98
2023-05-19T08:23:09.488Z,60.06
2023-05-19T08:24:10.423Z,60.29
2023-05-19T08:25:10.440Z,59.68
2023-05-19T08:26:10.414Z,59.52
2023-05-19T08:27:10.489Z,59.33
2023-05-19T08:28:10.504Z,59.21
2023-05-19T08:29:09.422Z,58.84
2023-05-19T08:30:10.364Z,59.22
2023-05-19T08:31:10.494Z,59.35
2023-05-19T08:32:12.439Z,60.00
2023-05-19T08:33:09.483Z,59.95
2023-05-19T08:34:10.356Z,59.52
2023-05-19T08:35:09.325Z,59.58
2023-05-19T08:36:09.398Z,59.69
2023-05-19T08:37:09.403Z,59.74
2023-05-19T08:38:10.316Z,59.61
2023-05-19T08:39:10.419Z,59.16
2023-05-19T08:40:10.325Z,58.98
2023-05-19T08:41:10.324Z,58.56
2023-05-19T08:42:09.288Z,58.69
2023-05-19T08:43:10.319Z,58.90
2023-05-19T08:44:10.286Z,58.87
2023-05-19T08:45:10.449Z,58.49
2023-05-19T08:46:09.325Z,57.99
2023-05-19T08:47:10.373Z,57.96
2023-05-19T08:48:09.373Z,58.04
2023-05-19T08:49:10.332Z,57.68
2023-05-19T08:50:09.240Z,56.66
2023-05-19T08:51:10.249Z,56.70
2023-05-19T08:52:09.323Z,56.71
2023-05-19T08:53:18.121Z,57.28
2023-05-19T08:54:10.287Z,57.42
2023-05-19T08:55:10.221Z,56.62
2023-05-19T08:56:10.235Z,56.02
2023-05-19T08:57:10.189Z,55.89
2023-05-19T08:58:10.158Z,55.51
2023-05-19T08:59:10.153Z,55.62
2023-05-19T09:00:10.224Z,55.46
2023-05-19T09:01:09.186Z,55.49
2023-05-19T09:02:10.206Z,55.75
2023-05-19T09:03:18.053Z,55.93
2023-05-19T09:04:10.338Z,55.47
2023-05-19T09:05:10.339Z,55.44
2023-05-19T09:06:09.212Z,55.69
2023-05-19T09:07:09.120Z,55.51
2023-05-19T09:08:09.219Z,55.81
2023-05-19T09:09:09.093Z,55.22
2023-05-19T09:10:09.114Z,54.97
2023-05-19T09:11:09.089Z,55.43
2023-05-19T09:12:09.109Z,54.86
2023-05-19T09:13:10.165Z,54.79
2023-05-19T09:14:10.066Z,54.08
2023-05-19T09:15:10.121Z,54.10
2023-05-19T09:16:10.056Z,54.59
2023-05-19T09:17:09.154Z,54.93
2023-05-19T09:18:09.136Z,55.18
2023-05-19T09:19:09.055Z,55.03
2023-05-19T09:20:09.050Z,54.94
2023-05-19T09:21:09.036Z,55.36
2023-05-19T09:22:10.136Z,55.99
2023-05-19T09:23:10.002Z,56.74
2023-05-19T09:24:10.195Z,57.15
2023-05-19T09:25:10.123Z,56.48
2023-05-19T09:26:09.997Z,55.85
2023-05-19T09:27:09.001Z,55.85
2023-05-19T09:28:08.977Z,55.41
2023-05-19T09:29:10.040Z,55.63
2023-05-19T09:30:10.078Z,55.17
2023-05-19T09:31:09.962Z,54.99
2023-05-19T09:32:09.970Z,54.87
2023-05-19T09:33:08.965Z,54.78
2023-05-19T09:34:08.942Z,54.84
2023-05-19T09:35:09.949Z,54.64
2023-05-19T09:36:09.111Z,55.66
2023-05-19T09:37:09.010Z,55.12
2023-05-19T09:38:10.027Z,55.07
2023-05-19T09:39:10.189Z,54.92
2023-05-19T09:40:10.555Z,55.53
2023-05-19T09:41:09.388Z,56.26
2023-05-19T09:42:10.192Z,57.19
2023-05-19T09:43:10.156Z,56.68
2023-05-19T09:44:09.183Z,56.40
2023-05-19T09:45:09.218Z,56.34
2023-05-19T09:46:11.183Z,54.73
2023-05-19T09:47:10.278Z,54.61
2023-05-19T09:48:09.325Z,53.75
2023-05-19T09:49:10.216Z,53.47
2023-05-19T09:50:10.228Z,53.32
2023-05-19T09:51:09.397Z,53.41
2023-05-19T09:52:10.068Z,53.54
2023-05-19T09:53:09.211Z,53.21
2023-05-19T09:54:09.232Z,53.41
2023-05-19T09:55:09.196Z,53.24
2023-05-19T09:56:10.474Z,53.11
2023-05-19T09:57:10.270Z,52.79
2023-05-19T09:58:12.110Z,52.70
2023-05-19T09:59:09.149Z,53.32
2023-05-19T10:00:09.195Z,53.43
2023-05-19T10:01:10.184Z,53.24
2023-05-19T10:02:09.144Z,52.91
2023-05-19T10:03:10.168Z,53.56
2023-05-19T10:04:10.347Z,54.59
2023-05-19T10:05:10.214Z,53.20
2023-05-19T10:06:10.156Z,52.61
2023-05-19T10:07:09.099Z,52.81
2023-05-19T10:08:10.092Z,52.68
2023-05-19T10:09:10.093Z,52.36
2023-05-19T10:10:10.162Z,52.13
2023-05-19T10:11:10.083Z,51.90
2023-05-19T10:12:10.170Z,51.13
2023-05-19T10:13:10.310Z,51.41
2023-05-19T10:14:09.053Z,51.66
2023-05-19T10:15:10.060Z,51.81
2023-05-19T10:16:09.288Z,51.74
2023-05-19T10:17:09.036Z,52.29
2023-05-19T10:18:09.099Z,52.46
2023-05-19T10:19:10.048Z,52.42
2023-05-19T10:20:09.007Z,52.38
2023-05-19T10:21:09.030Z,52.65
2023-05-19T10:22:08.984Z,53.45
2023-05-19T10:23:10.002Z,53.82
2023-05-19T10:24:11.479Z,53.68
2023-05-19T10:25:10.120Z,53.16
2023-05-19T10:26:09.981Z,51.96
2023-05-19T10:27:08.978Z,52.36
2023-05-19T10:28:09.949Z,52.49
2023-05-19T10:29:10.013Z,52.31
2023-05-19T10:30:11.498Z,52.22
2023-05-19T10:31:09.971Z,52.28
2023-05-19T10:32:08.950Z,52.61
2023-05-19T10:33:09.962Z,52.65
2023-05-19T10:34:09.038Z,52.94
2023-05-19T10:35:09.903Z,53.01
2023-05-19T10:36:09.913Z,53.12
2023-05-19T10:37:09.950Z,53.10
2023-05-19T10:38:09.894Z,53.07
2023-05-19T10:39:08.876Z,53.08
2023-05-19T10:40:08.892Z,52.61
2023-05-19T10:41:10.037Z,52.43
2023-05-19T10:42:09.849Z,52.11
2023-05-19T10:43:09.903Z,52.25
2023-05-19T10:44:09.846Z,52.90
2023-05-19T10:45:08.840Z,53.59
2023-05-19T10:46:09.840Z,53.58
2023-05-19T10:47:08.882Z,52.25
2023-05-19T10:48:08.851Z,51.96
2023-05-19T10:49:08.917Z,51.66
2023-05-19T10:50:08.825Z,51.42
2023-05-19T10:51:10.354Z,51.59
2023-05-19T10:52:08.780Z,50.74
2023-05-19T10:53:09.796Z,50.54
2023-05-19T10:54:08.783Z,50.55
2023-05-19T10:55:09.851Z,50.75
2023-05-19T10:56:09.793Z,51.31
2023-05-19T10:57:08.786Z,51.21
2023-05-19T10:58:09.824Z,50.12
2023-05-19T10:59:09.738Z,49.48
2023-05-19T11:00:09.898Z,49.71
2023-05-19T11:01:09.792Z,49.74
2023-05-19T11:02:09.793Z,49.73
2023-05-19T11:03:08.761Z,49.77
2023-05-19T11:04:09.796Z,49.66
2023-05-19T11:05:09.718Z,49.87
2023-05-19T11:06:08.694Z,49.88
2023-05-19T11:07:09.819Z,50.14
2023-05-19T11:08:09.013Z,50.16
2023-05-19T11:09:08.855Z,50.22
2023-05-19T11:10:08.847Z,50.65
2023-05-19T11:11:09.873Z,49.64
2023-05-19T11:12:10.019Z,49.40
2023-05-19T11:13:09.116Z,49.46
2023-05-19T11:14:09.953Z,49.68
2023-05-19T11:15:09.006Z,49.66
2023-05-19T11:16:10.055Z,50.01
2023-05-19T11:17:10.054Z,49.59
2023-05-19T11:18:09.100Z,49.90
2023-05-19T11:19:09.272Z,49.30
2023-05-19T11:20:09.269Z,49.54
2023-05-19T11:21:10.223Z,49.81
2023-05-19T11:22:09.257Z,49.18
2023-05-19T11:23:09.732Z,49.21
2023-05-19T11:24:10.365Z,48.82
2023-05-19T11:25:10.357Z,49.15
2023-05-19T11:26:10.381Z,49.19
2023-05-19T11:27:09.436Z,49.25
2023-05-19T11:28:09.463Z,49.40
2023-05-19T11:29:09.609Z,49.56
2023-05-19T11:30:09.826Z,49.46
2023-05-19T11:31:10.589Z,49.54
2023-05-19T11:32:09.667Z,49.24
2023-05-19T11:33:09.698Z,49.30
2023-05-19T11:34:09.756Z,49.51
2023-05-19T11:35:09.742Z,49.47
2023-05-19T11:36:10.919Z,49.66
2023-05-19T11:37:10.799Z,49.96
2023-05-19T11:38:10.879Z,50.55
2023-05-19T11:39:10.880Z,50.97
2023-05-19T11:40:10.910Z,49.95
2023-05-19T11:41:10.964Z,50.11
2023-05-19T11:42:11.304Z,49.87
2023-05-19T11:43:10.068Z,49.21
2023-05-19T11:44:10.095Z,48.97
2023-05-19T11:45:10.185Z,49.04
2023-05-19T11:46:11.220Z,48.96
2023-05-19T11:47:11.200Z,49.21
2023-05-19T11:48:10.342Z,49.92
2023-05-19T11:49:10.275Z,49.37
2023-05-19T11:50:10.345Z,49.48
2023-05-19T11:51:10.613Z,49.54
2023-05-19T11:52:11.336Z,49.48
2023-05-19T11:53:11.665Z,49.61
2023-05-19T11:54:11.445Z,49.57
2023-05-19T11:55:10.452Z,49.54
2023-05-19T11:56:10.638Z,49.50
2023-05-19T11:57:11.511Z,48.98
2023-05-19T11:58:10.605Z,48.54
2023-05-19T11:59:10.841Z,48.59
2023-05-19T12:00:11.802Z,48.40
2023-05-19T12:01:11.917Z,48.56
2023-05-19T12:02:11.784Z,48.27
2023-05-19T12:03:11.925Z,48.53
2023-05-19T12:04:10.856Z,48.45
2023-05-19T12:05:11.025Z,48.20
2023-05-19T12:06:12.266Z,47.87
2023-05-19T12:07:11.996Z,48.02
2023-05-19T12:08:11.035Z,47.83
2023-05-19T12:09:11.072Z,47.40
2023-05-19T12:10:11.372Z,47.29
2023-05-19T12:11:11.256Z,46.79
2023-05-19T12:12:12.183Z,47.54
2023-05-19T12:13:11.453Z,47.76
2023-05-19T12:14:12.311Z,47.80
2023-05-19T12:15:12.310Z,47.19
2023-05-19T12:16:12.465Z,47.09
2023-05-19T12:17:11.447Z,47.20
2023-05-19T12:18:11.414Z,47.43
2023-05-19T12:19:12.723Z,47.17
2023-05-19T12:20:12.737Z,47.28
2023-05-19T12:21:11.745Z,48.98
2023-05-19T12:22:11.529Z,48.94
2023-05-19T12:23:11.743Z,48.32
2023-05-19T12:24:11.642Z,48.70
2023-05-19T12:25:11.695Z,48.64
2023-05-19T12:26:11.650Z,48.49
2023-05-19T12:27:11.704Z,48.91
2023-05-19T12:28:12.747Z,48.63
2023-05-19T12:29:12.789Z,49.16
2023-05-19T12:30:12.746Z,48.94
2023-05-19T12:31:13.136Z,48.48
2023-05-19T12:32:11.878Z,47.71
2023-05-19T12:33:12.952Z,48.00
2023-05-19T12:34:11.910Z,47.73
2023-05-19T12:35:11.925Z,47.54
2023-05-19T12:36:11.972Z,47.62
2023-05-19T12:37:12.016Z,47.24
2023-05-19T12:38:12.980Z,47.47
2023-05-19T12:39:13.103Z,47.06
2023-05-19T12:40:12.067Z,47.21
2023-05-19T12:41:12.111Z,47.08
2023-05-19T12:42:12.141Z,47.09
2023-05-19T12:43:13.206Z,47.46
2023-05-19T12:44:13.406Z,47.61
2023-05-19T12:45:12.304Z,47.35
2023-05-19T12:46:13.512Z,47.25
2023-05-19T12:47:13.505Z,47.32
2023-05-19T12:48:13.502Z,47.31
2023-05-19T12:49:13.520Z,47.02
2023-05-19T12:50:13.451Z,47.00
2023-05-19T12:51:13.529Z,47.38
2023-05-19T12:52:13.218Z,46.67
2023-05-19T12:53:12.695Z,46.85